createdAt,value
2022-10-28T00:01:16.088Z,13.00
2022-10-28T00:03:45.355Z,13.00
2022-10-28T00:06:15.153Z,13.00
2022-10-28T00:08:42.607Z,13.00
2022-10-28T00:11:11.970Z,13.00
2022-10-28T00:13:39.467Z,13.00
2022-10-28T00:16:14.474Z,13.00
2022-10-28T00:18:41.979Z,12.90
2022-10-28T00:21:18.144Z,12.90
2022-10-28T00:23:45.627Z,12.90
2022-10-28T00:26:17.880Z,12.90
2022-10-28T00:28:58.179Z,12.90
2022-10-28T00:31:26.920Z,12.90
2022-10-28T00:33:55.677Z,12.90
2022-10-28T00:36:25.363Z,12.90
2022-10-28T00:38:54.824Z,12.90
2022-10-28T00:41:29.046Z,12.80
2022-10-28T00:43:57.962Z,12.90
2022-10-28T00:46:41.730Z,12.80
2022-10-28T00:49:30.226Z,12.90
2022-10-28T00:52:10.587Z,12.90
2022-10-28T00:54:37.915Z,13.00
2022-10-28T00:57:06.436Z,13.00
2022-10-28T00:59:35.196Z,13.00
2022-10-28T01:02:02.596Z,13.00
2022-10-28T01:04:29.984Z,13.00
2022-10-28T01:06:57.663Z,13.00
2022-10-28T01:12:23.497Z,13.00
2022-10-28T01:15:28.736Z,13.00
2022-10-28T01:18:38.745Z,13.00
2022-10-28T01:21:49.436Z,13.00
2022-10-28T01:24:38.686Z,13.00
2022-10-28T01:27:17.483Z,12.90
2022-10-28T01:30:06.746Z,12.90
2022-10-28T01:32:56.051Z,12.90
2022-10-28T01:35:45.713Z,13.00
2022-10-28T01:38:25.161Z,13.00
2022-10-28T01:41:15.712Z,13.00
2022-10-28T01:43:54.480Z,12.90
2022-10-28T01:46:42.017Z,12.90
2022-10-28T01:49:43.408Z,12.90
2022-10-28T01:52:13.025Z,12.90
2022-10-28T01:54:41.259Z,12.90
2022-10-28T01:57:08.681Z,12.90
2022-10-28T01:59:36.021Z,12.80
2022-10-28T02:04:35.534Z,12.80
2022-10-28T02:07:02.875Z,12.80
2022-10-28T02:09:52.189Z,12.80
2022-10-28T02:12:22.268Z,12.80
2022-10-28T02:15:12.898Z,12.70
2022-10-28T02:18:05.439Z,12.70
2022-10-28T02:20:57.354Z,12.70
2022-10-28T02:23:27.467Z,12.70
2022-10-28T02:25:58.937Z,12.70
2022-10-28T02:28:37.431Z,12.70
2022-10-28T02:31:13.395Z,12.60
2022-10-28T02:33:40.743Z,12.60
2022-10-28T02:36:13.130Z,12.50
2022-10-28T02:38:44.204Z,12.50
2022-10-28T02:41:27.573Z,12.40
2022-10-28T02:44:02.137Z,12.40
2022-10-28T02:46:29.903Z,12.40
2022-10-28T02:49:03.303Z,12.40
2022-10-28T02:51:35.058Z,12.30
2022-10-28T02:54:16.273Z,12.30
2022-10-28T02:57:04.099Z,12.30
2022-10-28T02:59:31.440Z,12.30
2022-10-28T03:01:58.904Z,12.30
2022-10-28T03:04:26.338Z,12.30
2022-10-28T03:06:53.728Z,12.30
2022-10-28T03:09:21.018Z,12.30
2022-10-28T03:11:48.330Z,12.30
2022-10-28T03:14:15.617Z,12.30
2022-10-28T03:16:43.070Z,12.20
2022-10-28T03:19:10.403Z,12.30
2022-10-28T03:21:37.673Z,12.20
2022-10-28T03:24:05.189Z,12.20
2022-10-28T03:26:32.566Z,12.20
2022-10-28T03:28:59.884Z,12.20
2022-10-28T03:31:27.279Z,12.20
2022-10-28T03:33:54.718Z,12.20
2022-10-28T03:36:22.018Z,12.20
2022-10-28T03:38:49.422Z,12.20
2022-10-28T03:41:16.734Z,12.20
2022-10-28T03:43:44.347Z,12.10
2022-10-28T03:46:11.656Z,12.10
2022-10-28T03:48:38.963Z,12.10
2022-10-28T03:51:06.495Z,12.10
2022-10-28T03:53:33.855Z,12.10
2022-10-28T03:56:01.598Z,12.10
2022-10-28T03:58:29.079Z,12.10
2022-10-28T04:00:56.698Z,12.10
2022-10-28T04:03:24.705Z,12.10
2022-10-28T04:05:52.088Z,12.10
2022-10-28T04:08:19.530Z,12.10
2022-10-28T04:10:47.599Z,12.10
2022-10-28T04:13:15.380Z,12.10
2022-10-28T04:15:42.759Z,12.10
2022-10-28T04:18:10.533Z,12.00
2022-10-28T04:20:37.915Z,12.10
2022-10-28T04:23:05.270Z,12.00
2022-10-28T04:25:32.582Z,12.00
2022-10-28T04:27:59.951Z,12.00
2022-10-28T04:30:27.383Z,12.00
2022-10-28T04:32:54.765Z,12.00
2022-10-28T04:35:22.169Z,12.00
2022-10-28T04:37:49.456Z,12.00
2022-10-28T04:40:16.823Z,12.00
2022-10-28T04:42:44.090Z,12.00
2022-10-28T04:45:11.572Z,12.00
2022-10-28T04:47:38.915Z,11.90
2022-10-28T04:50:06.639Z,12.00
2022-10-28T04:52:33.924Z,12.00
2022-10-28T04:55:01.236Z,12.00
2022-10-28T04:57:28.577Z,11.90
2022-10-28T04:59:55.868Z,12.00
2022-10-28T05:02:23.595Z,12.00
2022-10-28T05:04:51.018Z,11.90
2022-10-28T05:07:21.228Z,11.90
2022-10-28T05:09:50.835Z,11.90
2022-10-28T05:12:18.178Z,11.90
2022-10-28T05:14:47.212Z,11.80
2022-10-28T05:17:16.209Z,11.80
2022-10-28T05:19:45.276Z,11.90
2022-10-28T05:22:12.577Z,11.80
2022-10-28T05:24:39.896Z,11.80
2022-10-28T05:27:07.260Z,11.90
2022-10-28T05:29:34.555Z,11.90
2022-10-28T05:32:01.979Z,11.90
2022-10-28T05:34:29.365Z,11.90
2022-10-28T05:36:56.671Z,11.90
2022-10-28T05:39:24.021Z,11.90
2022-10-28T05:41:51.364Z,11.90
2022-10-28T05:44:18.713Z,12.00
2022-10-28T05:46:46.046Z,12.00
2022-10-28T05:49:13.393Z,12.00
2022-10-28T05:51:40.694Z,12.00
2022-10-28T05:54:08.135Z,12.10
2022-10-28T05:56:35.520Z,12.10
2022-10-28T05:59:02.914Z,12.20
2022-10-28T06:01:30.295Z,12.20
2022-10-28T06:03:57.670Z,12.20
2022-10-28T06:06:25.200Z,12.30
2022-10-28T06:08:52.517Z,12.30
2022-10-28T06:11:18.316Z,12.40
2022-10-28T06:13:46.196Z,12.40
2022-10-28T06:16:13.535Z,12.50
2022-10-28T06:18:40.903Z,12.50
2022-10-28T06:21:08.232Z,12.50
2022-10-28T06:23:35.572Z,12.50
2022-10-28T06:26:04.064Z,12.50
2022-10-28T06:28:31.524Z,12.50
2022-10-28T06:31:03.018Z,12.50
2022-10-28T06:33:31.684Z,12.50
2022-10-28T06:35:59.046Z,12.60
2022-10-28T06:38:26.899Z,12.60
2022-10-28T06:40:56.382Z,12.60
2022-10-28T06:43:23.799Z,12.60
2022-10-28T06:45:55.114Z,12.60
2022-10-28T06:48:24.118Z,12.60
2022-10-28T06:50:51.457Z,12.60
2022-10-28T06:53:21.560Z,12.70
2022-10-28T06:56:07.269Z,12.70
2022-10-28T06:58:34.638Z,12.80
2022-10-28T07:01:05.718Z,12.80
2022-10-28T07:03:33.127Z,12.80
2022-10-28T07:06:00.692Z,12.80
2022-10-28T07:08:28.201Z,12.90
2022-10-28T07:10:58.888Z,12.90
2022-10-28T07:13:26.352Z,12.90
2022-10-28T07:15:55.104Z,13.00
2022-10-28T07:18:22.675Z,13.00
2022-10-28T07:20:50.047Z,13.10
2022-10-28T07:23:17.444Z,13.10
2022-10-28T07:25:51.058Z,13.20
2022-10-28T07:28:18.409Z,13.30
2022-10-28T07:30:45.727Z,13.40
2022-10-28T07:33:13.129Z,13.50
2022-10-28T07:35:40.502Z,13.60
2022-10-28T07:38:07.782Z,13.70
2022-10-28T07:40:35.105Z,13.80
2022-10-28T07:43:02.360Z,14.00
2022-10-28T07:45:29.668Z,14.10
2022-10-28T07:47:56.991Z,14.20
2022-10-28T07:50:24.343Z,14.40
2022-10-28T07:52:51.879Z,14.50
2022-10-28T07:55:21.487Z,14.60
2022-10-28T07:57:48.887Z,14.80
2022-10-28T08:00:16.351Z,14.90
2022-10-28T08:02:43.684Z,15.10
2022-10-28T08:05:11.024Z,15.30
2022-10-28T08:07:38.969Z,15.40
2022-10-28T08:10:06.990Z,15.60
2022-10-28T08:12:34.425Z,15.80
2022-10-28T08:15:02.681Z,16.00
2022-10-28T08:17:30.164Z,16.20
2022-10-28T08:19:57.553Z,16.40
2022-10-28T08:22:24.952Z,16.60
2022-10-28T08:24:52.254Z,16.80
2022-10-28T08:27:19.528Z,17.00
2022-10-28T08:29:46.821Z,17.10
2022-10-28T08:32:14.110Z,17.40
2022-10-28T08:34:43.611Z,17.50
2022-10-28T08:37:11.304Z,17.50
2022-10-28T08:39:38.727Z,17.60
2022-10-28T08:42:27.234Z,17.70
2022-10-28T08:45:24.040Z,17.80
2022-10-28T08:48:25.538Z,17.80
2022-10-28T08:50:54.962Z,17.90
2022-10-28T08:53:35.093Z,17.90
2022-10-28T08:56:14.562Z,17.90
2022-10-28T08:58:43.901Z,18.00
2022-10-28T09:01:20.380Z,18.00
2022-10-28T09:03:50.329Z,18.10
2022-10-28T09:06:17.621Z,18.10
2022-10-28T09:08:48.819Z,18.20
2022-10-28T09:11:43.195Z,18.20
2022-10-28T09:14:35.373Z,18.20
2022-10-28T09:17:21.610Z,18.30
2022-10-28T09:20:19.523Z,18.30
2022-10-28T09:22:57.238Z,18.40
2022-10-28T09:25:27.757Z,18.40
2022-10-28T09:27:58.565Z,18.50
2022-10-28T09:30:42.723Z,18.50
2022-10-28T09:33:22.010Z,18.50
2022-10-28T09:35:49.413Z,18.60
2022-10-28T09:38:25.666Z,18.60
2022-10-28T09:41:07.207Z,18.80
2022-10-28T09:43:36.031Z,18.90
2022-10-28T09:46:08.786Z,19.10
2022-10-28T09:48:38.000Z,19.20
2022-10-28T09:51:05.780Z,19.40
2022-10-28T09:53:44.068Z,19.40
2022-10-28T09:56:11.382Z,19.50
2022-10-28T09:58:39.641Z,19.50
2022-10-28T10:01:06.985Z,19.60
2022-10-28T10:03:34.277Z,19.70
2022-10-28T10:06:08.182Z,19.80
2022-10-28T10:08:37.450Z,20.00
2022-10-28T10:11:06.230Z,20.10
2022-10-28T10:13:38.817Z,20.20
2022-10-28T10:16:18.032Z,20.30
2022-10-28T10:18:48.515Z,20.50
2022-10-28T10:21:16.665Z,20.70
2022-10-28T10:23:43.985Z,20.80
2022-10-28T10:26:16.013Z,20.90
2022-10-28T10:28:50.557Z,21.00
2022-10-28T10:31:21.543Z,21.10
2022-10-28T10:33:50.698Z,21.10
2022-10-28T10:36:21.052Z,21.20
2022-10-28T10:38:54.071Z,21.30
2022-10-28T10:41:40.413Z,21.40
2022-10-28T10:44:23.139Z,21.60
2022-10-28T10:47:03.471Z,21.80
2022-10-28T10:49:39.989Z,21.90
2022-10-28T10:52:19.240Z,21.90
2022-10-28T10:54:58.728Z,21.90
2022-10-28T10:57:26.367Z,21.90
2022-10-28T10:59:54.421Z,21.80
2022-10-28T11:02:32.538Z,21.80
2022-10-28T11:05:02.009Z,21.70
2022-10-28T11:07:29.799Z,21.60
2022-10-28T11:09:57.142Z,21.50
2022-10-28T11:12:28.537Z,21.50
2022-10-28T11:15:00.441Z,21.50
2022-10-28T11:17:36.840Z,21.40
2022-10-28T11:20:26.079Z,21.50
2022-10-28T11:23:23.949Z,21.60
2022-10-28T11:25:54.963Z,21.70
2022-10-28T11:28:27.988Z,21.90
2022-10-28T11:31:22.783Z,22.10
2022-10-28T11:33:57.250Z,22.20
2022-10-28T11:36:34.698Z,22.40
2022-10-28T11:39:17.123Z,22.50
2022-10-28T11:41:57.241Z,22.60
2022-10-28T11:44:49.548Z,22.60
2022-10-28T11:47:29.788Z,22.60
2022-10-28T11:50:04.215Z,22.70
2022-10-28T11:52:31.597Z,22.80
2022-10-28T11:55:01.878Z,22.80
2022-10-28T11:57:58.115Z,22.90
2022-10-28T12:00:52.666Z,23.10
2022-10-28T12:03:22.973Z,23.20
2022-10-28T12:06:09.900Z,23.40
2022-10-28T12:08:56.216Z,23.50
2022-10-28T12:11:48.068Z,23.60
2022-10-28T12:14:31.924Z,23.60
2022-10-28T12:17:12.872Z,23.80
2022-10-28T12:19:58.734Z,23.90
2022-10-28T12:22:52.768Z,23.90
2022-10-28T12:25:25.778Z,24.00
2022-10-28T12:27:56.181Z,24.00
2022-10-28T12:30:33.635Z,24.20
2022-10-28T12:33:25.900Z,24.20
2022-10-28T12:36:18.050Z,24.10
2022-10-28T12:38:46.386Z,24.00
2022-10-28T12:41:27.768Z,24.00
2022-10-28T12:44:08.026Z,24.00
2022-10-28T12:46:53.481Z,24.10
2022-10-28T12:49:42.524Z,24.20
2022-10-28T12:52:34.622Z,24.30
2022-10-28T12:57:44.141Z,24.30
2022-10-28T13:00:19.732Z,24.30
2022-10-28T13:03:09.586Z,24.20
2022-10-28T13:05:41.692Z,24.20
2022-10-28T13:08:33.842Z,24.00
2022-10-28T13:11:19.627Z,23.90
2022-10-28T13:13:53.557Z,23.90
2022-10-28T13:17:12.182Z,23.80
2022-10-28T13:20:15.697Z,23.90
2022-10-28T13:23:04.222Z,23.90
2022-10-28T13:25:54.121Z,24.00
2022-10-28T13:28:24.126Z,24.10
2022-10-28T13:30:56.219Z,24.20
2022-10-28T13:33:27.978Z,24.30
2022-10-28T13:36:07.877Z,24.40
2022-10-28T13:38:35.227Z,24.40
2022-10-28T13:41:02.563Z,24.40
2022-10-28T13:43:48.821Z,24.40
2022-10-28T13:46:53.583Z,24.30
2022-10-28T13:49:25.053Z,24.30
2022-10-28T13:51:59.780Z,24.20
2022-10-28T13:54:30.818Z,24.00
2022-10-28T13:57:03.323Z,24.00
2022-10-28T13:59:32.998Z,23.90
2022-10-28T14:02:32.319Z,23.90
2022-10-28T14:05:02.872Z,23.90
2022-10-28T14:07:33.965Z,23.80
2022-10-28T14:10:20.163Z,23.60
2022-10-28T14:13:01.218Z,23.50
2022-10-28T14:15:35.825Z,23.40
2022-10-28T14:18:37.407Z,23.40
2022-10-28T14:21:01.657Z,23.30
2022-10-28T14:23:29.302Z,23.20
2022-10-28T14:25:59.982Z,23.10
2022-10-28T14:28:27.405Z,23.00
2022-10-28T14:31:12.955Z,23.00
2022-10-28T14:33:43.444Z,22.90
2022-10-28T14:36:19.981Z,22.80
2022-10-28T14:38:53.428Z,22.80
2022-10-28T14:41:45.205Z,22.70
2022-10-28T14:44:18.509Z,22.60
2022-10-28T14:47:14.638Z,22.60
2022-10-28T14:49:55.770Z,22.50
2022-10-28T14:52:23.189Z,22.40
2022-10-28T14:54:52.686Z,22.30
2022-10-28T14:57:22.771Z,22.30
2022-10-28T14:59:50.168Z,22.20
2022-10-28T15:02:20.777Z,22.10
2022-10-28T15:04:59.318Z,22.10
2022-10-28T15:07:26.687Z,22.00
2022-10-28T15:09:54.479Z,21.90
2022-10-28T15:12:22.776Z,21.90
2022-10-28T15:14:52.242Z,21.80
2022-10-28T15:17:19.556Z,21.80
2022-10-28T15:19:48.825Z,21.70
2022-10-28T15:22:24.003Z,21.60
2022-10-28T15:28:39.121Z,21.50
2022-10-28T15:31:06.693Z,21.40
2022-10-28T15:33:41.053Z,21.30
2022-10-28T15:36:12.654Z,21.20
2022-10-28T15:38:45.224Z,21.10
2022-10-28T15:41:31.099Z,21.10
2022-10-28T15:44:02.321Z,21.00
2022-10-28T15:46:29.843Z,20.90
2022-10-28T15:49:01.440Z,20.80
2022-10-28T15:51:28.873Z,20.70
2022-10-28T15:54:12.005Z,20.70
2022-10-28T15:56:56.510Z,20.60
2022-10-28T15:59:24.640Z,20.50
2022-10-28T16:01:55.986Z,20.40
2022-10-28T16:04:23.704Z,20.40
2022-10-28T16:06:52.214Z,20.30
2022-10-28T16:09:33.069Z,20.20
2022-10-28T16:12:10.574Z,20.10
2022-10-28T16:14:44.439Z,20.10
2022-10-28T16:17:26.880Z,20.00
2022-10-28T16:19:55.401Z,19.90
2022-10-28T16:22:23.670Z,19.90
2022-10-28T16:24:52.036Z,19.80
2022-10-28T16:27:24.559Z,19.80
2022-10-28T16:29:51.943Z,19.70
2022-10-28T16:32:27.980Z,19.60
2022-10-28T16:34:58.865Z,19.50
2022-10-28T16:37:27.728Z,19.50
2022-10-28T16:39:55.202Z,19.50
2022-10-28T16:42:22.550Z,19.40
2022-10-28T16:44:49.950Z,19.30
2022-10-28T16:47:20.875Z,19.30
2022-10-28T16:49:54.487Z,19.30
2022-10-28T16:52:29.260Z,19.30
2022-10-28T16:54:56.865Z,19.30
2022-10-28T16:59:56.690Z,19.30
2022-10-28T17:02:34.813Z,19.30
2022-10-28T17:05:05.047Z,19.40
2022-10-28T17:07:32.385Z,19.30
2022-10-28T17:09:59.714Z,19.30
2022-10-28T17:12:27.429Z,19.30
2022-10-28T17:14:54.976Z,19.30
2022-10-28T17:17:22.369Z,19.30
2022-10-28T17:19:49.665Z,19.30
2022-10-28T17:22:17.193Z,19.20
2022-10-28T17:24:44.573Z,19.20
2022-10-28T17:27:12.946Z,19.10
2022-10-28T17:29:40.518Z,19.10
2022-10-28T17:32:10.986Z,19.00
2022-10-28T17:34:38.389Z,19.00
2022-10-28T17:37:06.074Z,18.90
2022-10-28T17:39:33.932Z,18.90
2022-10-28T17:42:01.287Z,18.80
2022-10-28T17:44:28.657Z,18.70
2022-10-28T17:46:56.010Z,18.60
2022-10-28T17:49:23.312Z,18.60
2022-10-28T17:51:51.493Z,18.50
2022-10-28T17:54:18.867Z,18.50
2022-10-28T17:56:47.023Z,18.40
2022-10-28T17:59:14.401Z,18.30
2022-10-28T18:01:41.880Z,18.30
2022-10-28T18:04:11.554Z,18.20
2022-10-28T18:06:38.853Z,18.20
2022-10-28T18:09:12.700Z,18.20
2022-10-28T18:11:40.832Z,18.20
2022-10-28T18:14:08.154Z,18.20
2022-10-28T18:16:36.199Z,18.10
2022-10-28T18:19:05.150Z,18.10
2022-10-28T18:21:32.616Z,18.10
2022-10-28T18:24:05.762Z,18.10
2022-10-28T18:26:34.502Z,18.10
2022-10-28T18:29:04.831Z,18.10
2022-10-28T18:31:33.063Z,18.10
2022-10-28T18:34:01.142Z,18.10
2022-10-28T18:36:30.724Z,18.10
2022-10-28T18:38:58.249Z,18.10
2022-10-28T18:41:27.318Z,18.10
2022-10-28T18:43:55.445Z,18.00
2022-10-28T18:46:22.894Z,17.90
2022-10-28T18:48:50.318Z,17.90
2022-10-28T18:51:17.816Z,17.90
2022-10-28T18:53:47.290Z,17.80
2022-10-28T18:56:19.315Z,17.80
2022-10-28T18:58:49.261Z,17.80
2022-10-28T19:01:18.069Z,17.80
2022-10-28T19:03:45.504Z,17.70
2022-10-28T19:06:14.863Z,17.70
2022-10-28T19:08:42.343Z,17.60
2022-10-28T19:11:13.464Z,17.60
2022-10-28T19:13:41.438Z,17.60
2022-10-28T19:16:09.517Z,17.60
2022-10-28T19:18:38.334Z,17.60
2022-10-28T19:21:11.077Z,17.50
2022-10-28T19:23:38.570Z,17.50
2022-10-28T19:26:06.792Z,17.50
2022-10-28T19:28:39.412Z,17.50
2022-10-28T19:31:08.975Z,17.50
2022-10-28T19:33:38.353Z,17.50
2022-10-28T19:36:14.359Z,17.40
2022-10-28T19:38:41.706Z,17.40
2022-10-28T19:41:13.607Z,17.40
2022-10-28T19:43:41.220Z,17.50
2022-10-28T19:46:12.943Z,17.50
2022-10-28T19:48:41.427Z,17.50
2022-10-28T19:51:09.564Z,17.50
2022-10-28T19:53:36.918Z,17.50
2022-10-28T19:56:04.768Z,17.40
2022-10-28T19:58:32.432Z,17.40
2022-10-28T20:01:05.421Z,17.30
2022-10-28T20:03:34.787Z,17.30
2022-10-28T20:06:13.666Z,17.30
2022-10-28T20:08:46.315Z,17.30
2022-10-28T20:11:27.386Z,17.30
2022-10-28T20:13:58.428Z,17.20
2022-10-28T20:16:25.940Z,17.20
2022-10-28T20:18:56.872Z,17.10
2022-10-28T20:21:28.613Z,17.20
2022-10-28T20:23:56.599Z,17.10
2022-10-28T20:26:31.299Z,17.10
2022-10-28T20:28:58.758Z,17.00
2022-10-28T20:31:27.231Z,17.00
2022-10-28T20:33:56.752Z,17.00
2022-10-28T20:36:34.729Z,17.00
2022-10-28T20:39:13.385Z,17.10
2022-10-28T20:41:41.232Z,17.10
2022-10-28T20:44:08.786Z,17.00
2022-10-28T20:46:36.207Z,17.00
2022-10-28T20:49:03.904Z,17.00
2022-10-28T20:51:31.813Z,17.00
2022-10-28T20:53:59.231Z,16.90
2022-10-28T20:56:31.275Z,16.80
2022-10-28T20:58:58.716Z,16.90
2022-10-28T21:01:33.548Z,16.90
2022-10-28T21:04:02.884Z,16.80
2022-10-28T21:06:30.435Z,16.80
2022-10-28T21:08:58.240Z,16.80
2022-10-28T21:11:26.076Z,16.70
2022-10-28T21:13:57.993Z,16.70
2022-10-28T21:16:25.840Z,16.80
2022-10-28T21:18:53.318Z,16.70
2022-10-28T21:21:21.012Z,16.70
2022-10-28T21:23:48.345Z,16.70
2022-10-28T21:26:15.759Z,16.70
2022-10-28T21:28:43.198Z,16.70
2022-10-28T21:31:12.238Z,16.60
2022-10-28T21:33:40.162Z,16.60
2022-10-28T21:36:11.972Z,16.60
2022-10-28T21:38:39.379Z,16.60
2022-10-28T21:41:11.602Z,16.70
2022-10-28T21:43:40.199Z,16.70
2022-10-28T21:46:07.768Z,16.70
2022-10-28T21:48:35.666Z,16.70
2022-10-28T21:51:07.225Z,16.70
2022-10-28T21:53:37.403Z,16.70
2022-10-28T21:56:16.588Z,16.60
2022-10-28T21:58:44.702Z,16.60
2022-10-28T22:01:17.534Z,16.60
2022-10-28T22:03:44.970Z,16.60
2022-10-28T22:06:12.377Z,16.60
2022-10-28T22:08:39.692Z,16.60
2022-10-28T22:11:07.815Z,16.50
2022-10-28T22:13:35.330Z,16.50
2022-10-28T22:16:04.688Z,16.50
2022-10-28T22:18:32.902Z,16.40
2022-10-28T22:21:11.852Z,16.40
2022-10-28T22:23:39.312Z,16.40
2022-10-28T22:26:08.396Z,16.40
2022-10-28T22:28:36.062Z,16.30
2022-10-28T22:31:11.853Z,16.30
2022-10-28T22:33:39.914Z,16.20
2022-10-28T22:36:11.957Z,16.20
2022-10-28T22:38:39.401Z,16.20
2022-10-28T22:41:08.278Z,16.10
2022-10-28T22:43:36.107Z,16.10
2022-10-28T22:46:03.640Z,16.10
2022-10-28T22:48:31.134Z,16.00
2022-10-28T22:50:58.611Z,16.00
2022-10-28T22:53:25.991Z,15.90
2022-10-28T22:55:53.765Z,15.90
2022-10-28T22:58:21.530Z,15.90
2022-10-28T23:00:49.020Z,15.80
2022-10-28T23:03:16.500Z,15.70
2022-10-28T23:05:43.902Z,15.70
2022-10-28T23:08:15.441Z,15.70
2022-10-28T23:10:42.824Z,15.70
2022-10-28T23:13:13.675Z,15.60
2022-10-28T23:15:41.005Z,15.60
2022-10-28T23:18:08.349Z,15.50
2022-10-28T23:20:36.913Z,15.50
2022-10-28T23:23:04.300Z,15.50
2022-10-28T23:25:31.664Z,15.40
2022-10-28T23:27:59.195Z,15.40
2022-10-28T23:30:26.713Z,15.40
2022-10-28T23:32:54.088Z,15.40
2022-10-28T23:35:21.411Z,15.30
2022-10-28T23:37:48.763Z,15.30
2022-10-28T23:40:16.182Z,15.30
2022-10-28T23:42:43.530Z,15.20
2022-10-28T23:45:10.860Z,15.20
2022-10-28T23:47:38.214Z,15.20
2022-10-28T23:50:05.746Z,15.20
2022-10-28T23:52:33.554Z,15.10
2022-10-28T23:55:00.873Z,15.10
2022-10-28T23:57:28.180Z,15.00
2022-10-28T23:59:55.504Z,15.00
